Terminal Aerodrome Forecast
Issued by NWS

Current Version | Previous Version | Graphics & Text | Print | Product List | Glossary On
Versions: 1 2 3 4 5 6 7 8 9 10 11 12 13 14 15 16 17 18 19 20 21 22 23 24 25
000
FTUS41 KILN 161405 AAA
TAFLCK
TAF AMD
KLCK 161405Z 1614/1712 33011G16KT 4SM -DZ OVC012
     FM161500 33011G19KT P6SM OVC008
     FM161800 34011G19KT P6SM OVC015
     FM170000 VRB03KT P6SM SCT025=

USA.gov is the U.S. government's official web portal to all federal, state and local government web resources and services.